aviador You're here:

OIZI Decoded Metar

IRAN SHAHR in IRAN
Report Time2017-10-22 17:00:00
UTC Time2017-10-22 17:06:40
Flight Rules vfr VFR
WindCalm
Visibility9999 m
Phenomena:N/A
Clouds:N/A
Expected CloudBase > 12,800 ft AGL from Temp-Dew spread
CeilingNone
Temp26°C (ISA +15)
Dew Point-6°C (12% RH)
AAT23.3°C
QNH1011 hPa
Density Alt3,773 ft
Elevation1,939 ft
Report Wrong Elevation
Raw Report
METAR OIZI 221700Z 00000KT CAVOK 26/M06 Q1011=

Extra information for OIZI:More info

Metar Taf Metar & Taf Last 4 Metars F.Rules Stats Wind Profile Meteogram Temp Stats Airport Information Weather charts Add Link Nearby VenuesMetar ALERT Operation Metar Decoded Social comments